Time;durP1;ratioP1;P1;durP2;ratioP2;P2;SDS_P1;SDS_P2;PMS_P1;PMS_P2;Temp;Humidity;BMP_temperature;BMP_pressure;BME280_temperature;BME280_humidity;BME280_pressure;Samples;Min_cycle;Max_cycle;Signal;HPM_P1;HPM_P2
2021/07/29 00:01:15;;;;;;;7.97;3.65;;;20.30;99.90;;;;;;5035614;28;20539;-73
2021/07/29 00:03:41;;;;;;;7.03;3.50;;;20.30;99.90;;;;;;5038666;28;20091;-73
2021/07/29 00:06:12;;;;;;;3.72;2.97;;;20.30;99.90;;;;;;5037187;28;20056;-73
2021/07/29 00:08:37;;;;;;;5.45;3.47;;;20.30;99.90;;;;;;5039399;28;20116;-74
2021/07/29 00:11:03;;;;;;;4.45;3.28;;;20.30;99.90;;;;;;5041346;28;20128;-73
2021/07/29 00:13:28;;;;;;;5.50;3.85;;;20.30;99.90;;;;;;5040080;28;20022;-73
2021/07/29 00:15:54;;;;;;;5.15;3.35;;;20.30;99.90;;;;;;5037907;28;20029;-73
2021/07/29 00:21:04;;;;;;;5.43;3.60;;;20.20;99.90;;;;;;5033856;28;20101;-72
2021/07/29 00:23:29;;;;;;;5.32;3.47;;;20.20;99.90;;;;;;5038979;28;20108;-73
2021/07/29 00:25:54;;;;;;;4.85;3.70;;;20.20;99.90;;;;;;5047683;28;20151;-73
2021/07/29 00:28:20;;;;;;;8.23;3.63;;;20.20;99.90;;;;;;5039392;28;20026;-73
2021/07/29 00:30:45;;;;;;;9.10;3.80;;;20.10;99.90;;;;;;5037834;28;20825;-74
2021/07/29 00:33:11;;;;;;;5.20;3.65;;;20.10;99.90;;;;;;5044084;28;20021;-73
2021/07/29 00:35:36;;;;;;;15.52;3.58;;;20.10;99.90;;;;;;5030262;28;20369;-73
2021/07/29 00:38:02;;;;;;;5.38;3.58;;;20.10;99.90;;;;;;5033385;28;20079;-73
2021/07/29 00:40:28;;;;;;;5.30;3.60;;;20.10;99.90;;;;;;5030471;28;20020;-73
2021/07/29 00:42:54;;;;;;;4.22;3.22;;;20.10;99.90;;;;;;5039303;28;20087;-73
2021/07/29 00:45:20;;;;;;;4.78;3.42;;;20.10;99.90;;;;;;5034402;28;20021;-73
2021/07/29 00:47:48;;;;;;;4.78;3.72;;;20.10;99.90;;;;;;5040801;28;20098;-73
2021/07/29 00:50:14;;;;;;;7.32;3.60;;;20.10;99.90;;;;;;5036826;28;20030;-73
2021/07/29 00:52:40;;;;;;;6.32;3.65;;;20.10;99.90;;;;;;5036218;28;20029;-73
2021/07/29 00:55:07;;;;;;;5.00;3.55;;;20.10;99.90;;;;;;5037696;28;20442;-73
2021/07/29 00:57:34;;;;;;;4.88;3.60;;;20.10;99.90;;;;;;5035586;28;20021;-74
2021/07/29 01:00:00;;;;;;;6.55;3.15;;;20.10;99.90;;;;;;5035469;28;20080;-73
2021/07/29 01:02:26;;;;;;;8.57;3.88;;;20.10;99.90;;;;;;5035185;28;20262;-73
2021/07/29 01:04:51;;;;;;;6.88;3.20;;;20.10;99.90;;;;;;5025790;28;20050;-73
2021/07/29 01:07:17;;;;;;;6.47;3.40;;;20.00;99.90;;;;;;5031264;28;21131;-73
2021/07/29 01:09:42;;;;;;;5.20;3.50;;;20.00;99.90;;;;;;5025730;28;20026;-73
2021/07/29 01:12:08;;;;;;;5.28;3.28;;;20.00;99.90;;;;;;5034361;28;20033;-73
2021/07/29 01:14:34;;;;;;;4.22;3.00;;;20.00;99.90;;;;;;5026842;28;20035;-73
2021/07/29 01:17:00;;;;;;;5.25;3.30;;;20.00;99.90;;;;;;5027484;28;20028;-73
2021/07/29 01:19:26;;;;;;;8.05;4.13;;;20.00;99.90;;;;;;5022358;28;20025;-73
2021/07/29 01:21:56;;;;;;;6.93;3.70;;;20.00;99.90;;;;;;5036079;28;20083;-73
2021/07/29 01:24:26;;;;;;;4.63;3.40;;;19.90;99.90;;;;;;5033128;28;20029;-73
2021/07/29 01:26:52;;;;;;;5.47;3.42;;;19.90;99.90;;;;;;5030549;28;20111;-73
2021/07/29 01:29:18;;;;;;;3.83;3.10;;;20.00;99.90;;;;;;5041524;28;20112;-73
2021/07/29 01:31:43;;;;;;;3.72;3.05;;;20.00;99.90;;;;;;5042661;28;20380;-73
2021/07/29 01:34:09;;;;;;;7.63;3.95;;;19.90;99.90;;;;;;5039685;28;20404;-73
2021/07/29 01:36:35;;;;;;;5.60;3.67;;;19.90;99.90;;;;;;5037470;28;20041;-73
2021/07/29 01:39:00;;;;;;;5.20;3.30;;;19.90;99.90;;;;;;5036331;28;20033;-73
2021/07/29 01:41:26;;;;;;;4.70;3.30;;;19.80;99.90;;;;;;5040670;28;20033;-73
2021/07/29 01:43:51;;;;;;;5.47;3.25;;;19.80;99.90;;;;;;5034862;28;20028;-73
2021/07/29 01:46:17;;;;;;;7.85;3.85;;;19.70;99.90;;;;;;5039709;28;20037;-73
2021/07/29 01:48:42;;;;;;;5.00;3.85;;;19.60;99.90;;;;;;5037196;28;20104;-73
2021/07/29 01:51:08;;;;;;;5.40;3.60;;;19.60;99.90;;;;;;5036189;28;20265;-73
2021/07/29 01:53:33;;;;;;;4.70;3.45;;;19.60;99.90;;;;;;5034661;28;20568;-74
2021/07/29 01:55:59;;;;;;;4.38;3.25;;;19.50;99.90;;;;;;5040408;28;20021;-73
2021/07/29 01:58:24;;;;;;;7.20;3.03;;;19.50;99.90;;;;;;5039723;28;20017;-74
2021/07/29 02:00:51;;;;;;;4.47;3.58;;;19.40;99.90;;;;;;5037246;28;20064;-73
2021/07/29 02:03:17;;;;;;;5.68;3.70;;;19.30;99.90;;;;;;5036413;28;20037;-73
2021/07/29 02:05:42;;;;;;;4.78;3.83;;;19.30;99.90;;;;;;5033905;28;20060;-73
2021/07/29 02:08:08;;;;;;;4.70;3.55;;;19.20;99.90;;;;;;5036185;28;20055;-73
2021/07/29 02:10:34;;;;;;;4.55;3.70;;;19.20;99.90;;;;;;5031902;28;20029;-74
2021/07/29 02:13:00;;;;;;;5.75;4.22;;;19.10;99.90;;;;;;5039215;28;20112;-73
2021/07/29 02:15:26;;;;;;;4.47;3.20;;;19.10;99.90;;;;;;5045721;28;20116;-73
2021/07/29 02:17:59;;;;;;;4.90;3.60;;;19.10;99.90;;;;;;5034922;28;20497;-73
2021/07/29 02:20:29;;;;;;;4.35;3.20;;;19.10;99.90;;;;;;5039874;28;20044;-73
2021/07/29 02:22:54;;;;;;;7.70;3.47;;;19.00;99.90;;;;;;5040281;28;20037;-73
2021/07/29 02:25:20;;;;;;;8.50;3.65;;;19.00;99.90;;;;;;5041662;28;20020;-73
2021/07/29 02:27:46;;;;;;;4.90;3.53;;;19.00;99.90;;;;;;5040085;28;20029;-73
2021/07/29 02:30:12;;;;;;;6.78;3.58;;;19.10;99.90;;;;;;5044949;28;20494;-73
2021/07/29 02:32:38;;;;;;;4.45;3.30;;;19.00;99.90;;;;;;5031425;28;20031;-73
2021/07/29 02:35:05;;;;;;;3.97;3.25;;;19.00;99.90;;;;;;5040655;28;20044;-73
2021/07/29 02:37:30;;;;;;;4.63;3.65;;;19.00;99.90;;;;;;5040600;28;20527;-72
2021/07/29 02:39:56;;;;;;;6.28;3.72;;;18.90;99.90;;;;;;5042114;28;20033;-73
2021/07/29 02:42:21;;;;;;;4.25;3.28;;;18.90;99.90;;;;;;5036258;28;20029;-73
2021/07/29 02:44:47;;;;;;;5.03;3.70;;;18.80;99.90;;;;;;5042698;28;20638;-73
2021/07/29 02:47:14;;;;;;;6.18;3.83;;;18.80;99.90;;;;;;5040329;28;20066;-73
2021/07/29 02:49:39;;;;;;;4.72;3.47;;;18.70;99.90;;;;;;5039939;28;20063;-73
2021/07/29 02:52:05;;;;;;;5.43;3.63;;;18.70;99.90;;;;;;5039647;28;20440;-72
2021/07/29 02:54:30;;;;;;;5.07;3.67;;;18.70;99.90;;;;;;5037716;28;20017;-73
2021/07/29 02:56:56;;;;;;;4.57;3.45;;;18.70;99.90;;;;;;5035868;28;20526;-73
2021/07/29 02:59:21;;;;;;;4.85;3.42;;;18.70;99.90;;;;;;5037406;28;20025;-73
2021/07/29 03:01:47;;;;;;;5.18;3.60;;;18.70;99.90;;;;;;5033504;28;20033;-73
2021/07/29 03:04:13;;;;;;;4.80;3.42;;;18.70;99.90;;;;;;5034230;28;20488;-72
2021/07/29 03:06:38;;;;;;;4.45;3.28;;;18.70;99.90;;;;;;5033553;28;20057;-73
2021/07/29 03:09:04;;;;;;;5.13;3.75;;;18.70;99.90;;;;;;5039437;28;20025;-73
2021/07/29 03:11:29;;;;;;;5.45;3.53;;;18.60;99.90;;;;;;5038072;28;20029;-73
2021/07/29 03:13:55;;;;;;;5.03;3.28;;;18.60;99.90;;;;;;5036121;28;20017;-73
2021/07/29 03:16:21;;;;;;;4.20;3.40;;;18.60;99.90;;;;;;5041046;28;20468;-73
2021/07/29 03:18:46;;;;;;;6.47;2.83;;;18.60;99.90;;;;;;5032816;28;20367;-73
2021/07/29 03:21:12;;;;;;;4.53;3.25;;;18.50;99.90;;;;;;5028189;28;20109;-73
2021/07/29 03:23:38;;;;;;;4.45;3.05;;;18.60;99.90;;;;;;5026375;28;20044;-72
2021/07/29 03:26:04;;;;;;;4.65;3.47;;;18.60;99.90;;;;;;5020704;28;20067;-72
2021/07/29 03:28:30;;;;;;;4.15;3.10;;;18.60;99.90;;;;;;5024638;28;20479;-72
2021/07/29 03:30:55;;;;;;;4.40;3.25;;;18.60;99.90;;;;;;5031565;28;20025;-73
2021/07/29 03:33:21;;;;;;;3.67;2.97;;;18.50;99.90;;;;;;5029113;28;20120;-73
2021/07/29 03:35:47;;;;;;;3.63;3.15;;;18.50;99.90;;;;;;5032835;28;20029;-72
2021/07/29 03:38:13;;;;;;;4.20;3.20;;;18.50;99.90;;;;;;5033979;28;20411;-74
2021/07/29 03:40:39;;;;;;;3.80;3.00;;;18.50;99.90;;;;;;5044694;28;20033;-73
2021/07/29 03:43:06;;;;;;;5.20;2.90;;;18.50;99.90;;;;;;5033022;28;20029;-73
2021/07/29 03:45:32;;;;;;;4.15;3.10;;;18.50;99.90;;;;;;5031952;28;20037;-72
2021/07/29 03:47:59;;;;;;;3.35;2.63;;;18.50;99.90;;;;;;5038293;28;20032;-73
2021/07/29 03:50:25;;;;;;;4.70;3.08;;;18.50;99.90;;;;;;5036163;28;20033;-72
2021/07/29 03:52:50;;;;;;;4.75;3.25;;;18.50;99.90;;;;;;5036908;28;20029;-73
2021/07/29 03:55:16;;;;;;;3.55;2.90;;;18.50;99.90;;;;;;5034468;28;20021;-73
2021/07/29 03:57:42;;;;;;;4.93;3.17;;;18.50;99.90;;;;;;5040609;28;20075;-73
2021/07/29 04:00:08;;;;;;;6.18;3.10;;;18.50;99.90;;;;;;5038576;28;20063;-73
2021/07/29 04:02:34;;;;;;;3.78;3.00;;;18.60;99.90;;;;;;5042938;28;20487;-73
2021/07/29 04:05:00;;;;;;;6.05;3.28;;;18.60;99.90;;;;;;5038643;28;20040;-73
2021/07/29 04:07:25;;;;;;;3.97;2.90;;;18.60;99.90;;;;;;5043506;28;20033;-73
2021/07/29 04:09:51;;;;;;;3.92;3.00;;;18.70;99.90;;;;;;5037451;28;20027;-72
2021/07/29 04:12:17;;;;;;;3.30;2.58;;;18.70;99.90;;;;;;5044482;28;20838;-73
2021/07/29 04:14:43;;;;;;;7.53;3.67;;;18.70;99.90;;;;;;5037639;28;20372;-72
2021/07/29 04:17:10;;;;;;;7.30;3.00;;;18.70;99.90;;;;;;5037431;28;20052;-73
2021/07/29 04:19:36;;;;;;;4.47;3.30;;;18.80;99.90;;;;;;5043579;28;20028;-72
2021/07/29 04:22:05;;;;;;;3.85;2.80;;;18.80;99.90;;;;;;5040239;28;20039;-73
2021/07/29 04:24:31;;;;;;;3.33;2.80;;;18.80;99.90;;;;;;5039927;28;20032;-73
2021/07/29 04:26:58;;;;;;;4.22;2.95;;;18.90;99.90;;;;;;5040934;28;20115;-73
2021/07/29 04:29:25;;;;;;;5.78;3.28;;;18.90;99.90;;;;;;5044008;28;20686;-72
2021/07/29 04:31:51;;;;;;;4.57;3.20;;;18.90;99.90;;;;;;5038073;28;20112;-73
2021/07/29 04:34:16;;;;;;;3.85;3.28;;;18.90;99.90;;;;;;5037758;28;20025;-73
2021/07/29 04:36:42;;;;;;;4.40;2.97;;;18.90;99.90;;;;;;5043813;28;20028;-73
2021/07/29 04:39:08;;;;;;;6.05;3.50;;;18.80;99.90;;;;;;5033577;28;20056;-72
2021/07/29 04:41:43;;;;;;;4.78;2.85;;;18.80;99.90;;;;;;5032021;28;20022;-72
2021/07/29 04:44:11;;;;;;;3.60;3.08;;;18.80;99.90;;;;;;5043496;28;20545;-73
2021/07/29 04:46:38;;;;;;;5.05;3.15;;;18.70;99.90;;;;;;5037525;28;20581;-72
2021/07/29 04:49:06;;;;;;;4.30;3.30;;;18.80;99.90;;;;;;5038066;28;20028;-73
2021/07/29 04:51:35;;;;;;;4.82;3.70;;;18.70;99.90;;;;;;5039038;28;20050;-73
2021/07/29 04:54:01;;;;;;;4.95;3.33;;;18.80;99.90;;;;;;5045908;28;20087;-73
2021/07/29 04:56:27;;;;;;;5.80;3.13;;;18.70;99.90;;;;;;5041559;28;20434;-73
2021/07/29 04:58:52;;;;;;;5.13;3.15;;;18.70;99.90;;;;;;5034830;28;20029;-73
2021/07/29 05:01:18;;;;;;;3.85;2.60;;;18.70;99.90;;;;;;5034451;28;20041;-74
2021/07/29 05:03:45;;;;;;;4.68;3.40;;;18.60;99.90;;;;;;5039937;28;20029;-74
2021/07/29 05:06:11;;;;;;;4.25;3.10;;;18.60;99.90;;;;;;5039533;28;20107;-74
2021/07/29 05:08:36;;;;;;;5.45;3.50;;;18.60;99.90;;;;;;5041191;28;20547;-73
2021/07/29 05:11:03;;;;;;;7.97;3.25;;;18.60;99.90;;;;;;5041129;28;20052;-74
2021/07/29 05:13:29;;;;;;;5.60;3.13;;;18.60;99.90;;;;;;5041135;28;20060;-73
2021/07/29 05:15:55;;;;;;;5.85;2.80;;;18.70;99.90;;;;;;5031916;28;20694;-73
2021/07/29 05:18:20;;;;;;;4.72;3.10;;;18.70;99.90;;;;;;5043524;28;20032;-74
2021/07/29 05:20:45;;;;;;;4.03;3.28;;;18.70;99.90;;;;;;5035195;28;20025;-73
2021/07/29 05:23:12;;;;;;;4.70;2.75;;;18.70;99.90;;;;;;5040793;28;20365;-73
2021/07/29 05:25:37;;;;;;;5.03;3.10;;;18.70;99.90;;;;;;5043975;28;20048;-73
2021/07/29 05:28:03;;;;;;;4.38;2.95;;;18.70;99.90;;;;;;5036527;28;20384;-73
2021/07/29 05:30:29;;;;;;;4.07;2.90;;;18.70;99.90;;;;;;5038553;28;20040;-73
2021/07/29 05:32:54;;;;;;;4.13;2.92;;;18.70;99.90;;;;;;5041151;28;21124;-73
2021/07/29 05:35:20;;;;;;;4.15;3.05;;;18.70;99.90;;;;;;5040187;28;20029;-73
2021/07/29 05:37:45;;;;;;;4.78;3.10;;;18.80;99.90;;;;;;5038625;28;20040;-74
2021/07/29 05:40:10;;;;;;;4.75;2.80;;;18.80;99.90;;;;;;5038420;28;20051;-74
2021/07/29 05:42:36;;;;;;;3.70;3.13;;;18.80;99.90;;;;;;5043154;28;20410;-73
2021/07/29 05:45:02;;;;;;;4.18;2.55;;;18.80;99.90;;;;;;5036083;28;20464;-71
2021/07/29 05:47:28;;;;;;;3.60;2.78;;;18.90;99.90;;;;;;5037163;28;20037;-72
2021/07/29 05:49:53;;;;;;;3.35;2.40;;;18.90;99.90;;;;;;5038238;28;20119;-71
2021/07/29 05:52:19;;;;;;;3.47;2.97;;;18.90;99.90;;;;;;5039506;28;20124;-71
2021/07/29 05:54:45;;;;;;;4.28;2.58;;;19.00;99.90;;;;;;5038868;28;20027;-71
2021/07/29 05:57:10;;;;;;;4.05;2.55;;;19.00;99.90;;;;;;5036719;28;20031;-71
2021/07/29 05:59:36;;;;;;;2.80;2.50;;;19.00;99.90;;;;;;5041006;28;20779;-72
2021/07/29 06:02:01;;;;;;;4.35;2.60;;;19.10;99.90;;;;;;5034828;28;20025;-73
2021/07/29 06:04:27;;;;;;;3.97;2.50;;;19.10;99.90;;;;;;5041109;28;20040;-73
2021/07/29 06:06:53;;;;;;;4.10;2.60;;;19.20;99.90;;;;;;5044750;28;20035;-73
2021/07/29 06:09:19;;;;;;;5.97;2.75;;;19.10;99.90;;;;;;5036316;28;20029;-71
2021/07/29 06:11:45;;;;;;;7.80;2.47;;;19.20;99.90;;;;;;5037832;28;20024;-73
2021/07/29 06:14:10;;;;;;;3.00;2.30;;;19.20;99.90;;;;;;5035553;28;20412;-73
2021/07/29 06:16:36;;;;;;;3.22;2.30;;;19.30;99.90;;;;;;5040282;28;20039;-73
2021/07/29 06:21:34;;;;;;;4.22;2.20;;;19.40;99.90;;;;;;5039471;28;20060;-71
2021/07/29 06:24:00;;;;;;;2.67;2.35;;;19.40;99.90;;;;;;5042563;28;20383;-71
2021/07/29 06:26:26;;;;;;;3.15;2.33;;;19.40;99.90;;;;;;5035953;28;20029;-70
2021/07/29 06:28:51;;;;;;;5.50;2.60;;;19.40;99.90;;;;;;5038388;28;20116;-70
2021/07/29 06:31:17;;;;;;;6.50;2.50;;;19.50;99.90;;;;;;5038051;28;20036;-72
2021/07/29 06:33:42;;;;;;;2.97;2.28;;;19.50;99.90;;;;;;5038346;28;20054;-72
2021/07/29 06:36:08;;;;;;;4.53;2.30;;;19.60;99.90;;;;;;5031637;28;20034;-72
2021/07/29 06:38:33;;;;;;;7.93;2.22;;;19.60;99.90;;;;;;5028864;28;20025;-73
2021/07/29 06:40:59;;;;;;;4.20;2.28;;;19.70;99.90;;;;;;5035478;28;20491;-72
2021/07/29 06:43:24;;;;;;;4.88;2.65;;;19.70;99.50;;;;;;5037498;28;20028;-72
2021/07/29 06:45:50;;;;;;;3.42;2.30;;;19.70;99.30;;;;;;5033871;28;20048;-72
2021/07/29 06:48:17;;;;;;;2.30;2.05;;;19.70;99.90;;;;;;5041027;28;20048;-72
2021/07/29 06:50:43;;;;;;;4.53;2.58;;;19.80;98.90;;;;;;5039569;28;20028;-72
2021/07/29 06:53:08;;;;;;;2.95;2.15;;;19.90;98.20;;;;;;5037109;28;20712;-72
2021/07/29 06:55:34;;;;;;;3.72;2.55;;;19.90;98.40;;;;;;5037188;28;20025;-72
2021/07/29 06:57:59;;;;;;;3.25;2.15;;;19.90;98.30;;;;;;5036015;28;20017;-72
2021/07/29 07:00:25;;;;;;;3.15;2.10;;;19.90;95.40;;;;;;5038550;28;20033;-72
2021/07/29 07:02:50;;;;;;;4.35;2.50;;;20.00;94.20;;;;;;5038163;28;20527;-73
2021/07/29 07:05:16;;;;;;;3.33;2.42;;;20.00;94.40;;;;;;5035096;28;20049;-72
2021/07/29 07:07:41;;;;;;;3.55;2.30;;;20.10;93.50;;;;;;5039074;28;20478;-72
2021/07/29 07:10:07;;;;;;;4.38;2.17;;;20.10;92.40;;;;;;5042307;28;20360;-72
2021/07/29 07:12:35;;;;;;;5.28;1.85;;;20.20;91.70;;;;;;5038307;28;20106;-72
2021/07/29 07:15:00;;;;;;;3.90;2.35;;;20.30;91.10;;;;;;5036386;28;20548;-72
2021/07/29 07:17:26;;;;;;;3.30;2.05;;;20.30;91.00;;;;;;5038777;28;20033;-73
2021/07/29 07:19:56;;;;;;;4.75;2.25;;;20.30;90.80;;;;;;5041553;28;20052;-72
2021/07/29 07:22:21;;;;;;;5.65;2.28;;;20.40;90.20;;;;;;5034206;28;20108;-72
2021/07/29 07:24:47;;;;;;;6.15;2.30;;;20.50;90.10;;;;;;5033082;28;20107;-72
2021/07/29 07:27:12;;;;;;;3.70;2.13;;;20.50;90.10;;;;;;5040011;28;20040;-73
2021/07/29 07:29:40;;;;;;;4.22;2.28;;;20.50;90.00;;;;;;5039008;28;20086;-73
2021/07/29 07:32:06;;;;;;;2.25;1.95;;;20.60;88.90;;;;;;5041086;28;20147;-72
2021/07/29 07:34:31;;;;;;;4.55;2.30;;;20.60;88.30;;;;;;5034743;28;20176;-71
2021/07/29 07:36:58;;;;;;;2.75;2.20;;;20.70;90.00;;;;;;5031987;28;20024;-76
2021/07/29 07:39:24;;;;;;;4.38;2.05;;;20.70;89.10;;;;;;5033452;28;20429;-70
2021/07/29 07:41:49;;;;;;;3.22;2.08;;;20.70;88.50;;;;;;5041398;28;20052;-70
2021/07/29 07:44:14;;;;;;;2.30;2.00;;;20.80;88.80;;;;;;5040104;28;20480;-74
2021/07/29 07:46:40;;;;;;;3.25;2.10;;;20.90;88.40;;;;;;5035904;28;20091;-71
2021/07/29 07:49:05;;;;;;;3.88;2.10;;;21.00;87.80;;;;;;5036625;28;20013;-69
2021/07/29 07:51:31;;;;;;;3.40;2.17;;;21.00;89.00;;;;;;5038087;28;20422;-70
2021/07/29 07:53:56;;;;;;;3.97;2.35;;;21.00;87.80;;;;;;5040317;28;20025;-70
2021/07/29 07:56:22;;;;;;;3.63;2.08;;;21.10;85.70;;;;;;5040092;28;20496;-72
2021/07/29 07:58:47;;;;;;;6.88;2.30;;;21.10;84.20;;;;;;5041744;28;20017;-71
2021/07/29 08:01:14;;;;;;;6.25;2.15;;;21.10;84.90;;;;;;5037718;28;20055;-72
2021/07/29 08:03:40;;;;;;;2.85;2.03;;;21.20;85.10;;;;;;5026948;28;20132;-70
2021/07/29 08:06:05;;;;;;;3.70;2.30;;;21.20;84.80;;;;;;5026923;28;20060;-74
2021/07/29 08:08:31;;;;;;;3.75;2.10;;;21.20;82.80;;;;;;5038398;28;20036;-76
2021/07/29 08:10:56;;;;;;;4.43;2.30;;;21.30;83.50;;;;;;5026824;28;20032;-74
2021/07/29 08:13:22;;;;;;;5.72;1.85;;;21.50;82.80;;;;;;5032025;28;20033;-72
2021/07/29 08:15:47;;;;;;;3.60;2.15;;;21.60;82.60;;;;;;5037574;28;20025;-72
2021/07/29 08:18:13;;;;;;;2.58;2.00;;;21.70;81.60;;;;;;5035907;28;20059;-71
2021/07/29 08:20:42;;;;;;;2.22;1.88;;;21.70;80.50;;;;;;5030096;28;20200;-71
2021/07/29 08:23:08;;;;;;;3.88;2.15;;;21.70;80.80;;;;;;5035120;28;20039;-72
2021/07/29 08:25:35;;;;;;;5.72;2.30;;;21.70;80.50;;;;;;5032908;28;20030;-71
2021/07/29 08:28:01;;;;;;;2.80;2.00;;;21.70;80.90;;;;;;5036713;28;20059;-71
2021/07/29 08:30:27;;;;;;;4.03;2.08;;;21.60;80.80;;;;;;5040740;28;20057;-71
2021/07/29 08:32:52;;;;;;;6.90;2.05;;;21.70;80.10;;;;;;5031923;28;20463;-72
2021/07/29 08:35:18;;;;;;;3.40;1.73;;;21.70;79.70;;;;;;5039222;28;20491;-72
2021/07/29 08:37:47;;;;;;;2.65;1.92;;;21.70;80.00;;;;;;5034352;28;20043;-71
2021/07/29 08:40:17;;;;;;;3.85;2.15;;;21.60;80.30;;;;;;5041070;28;20024;-71
2021/07/29 08:42:44;;;;;;;5.78;2.28;;;21.50;80.70;;;;;;5036376;28;20134;-70
2021/07/29 08:45:10;;;;;;;2.92;1.90;;;21.50;80.50;;;;;;5033721;28;20034;-72
2021/07/29 08:47:35;;;;;;;4.90;2.10;;;21.50;79.70;;;;;;5036282;28;20025;-71
2021/07/29 08:50:04;;;;;;;4.18;2.22;;;21.40;79.10;;;;;;5029024;28;20072;-71
2021/07/29 08:52:29;;;;;;;2.92;1.92;;;21.40;77.70;;;;;;5032939;28;20041;-71
2021/07/29 08:54:55;;;;;;;2.70;2.05;;;21.30;78.00;;;;;;5042823;28;20474;-71
2021/07/29 08:57:30;;;;;;;3.15;1.90;;;21.30;79.20;;;;;;5046653;28;20052;-71
2021/07/29 08:59:56;;;;;;;3.83;2.25;;;21.30;81.10;;;;;;5043367;28;20310;-72
2021/07/29 09:02:26;;;;;;;3.70;2.10;;;21.40;80.10;;;;;;5046219;28;20124;-71
2021/07/29 09:05:09;;;;;;;3.67;2.40;;;21.60;78.70;;;;;;5043853;28;20096;-71
2021/07/29 09:07:34;;;;;;;2.70;2.10;;;21.80;78.10;;;;;;5047611;28;20037;-71
2021/07/29 09:10:00;;;;;;;5.50;2.25;;;22.00;78.60;;;;;;5045181;28;20482;-71
2021/07/29 09:12:26;;;;;;;3.28;2.30;;;22.10;78.50;;;;;;5048346;28;20055;-71
2021/07/29 09:14:53;;;;;;;7.68;2.10;;;22.10;77.40;;;;;;5046870;28;20049;-71
2021/07/29 09:17:20;;;;;;;7.00;2.45;;;21.90;74.60;;;;;;5042859;28;20165;-71
2021/07/29 09:19:51;;;;;;;5.45;2.40;;;21.80;76.70;;;;;;5045309;28;20387;-70
2021/07/29 09:22:19;;;;;;;2.63;2.07;;;21.70;76.00;;;;;;5044496;28;20430;-71
2021/07/29 09:25:02;;;;;;;4.85;2.05;;;21.60;78.10;;;;;;5044961;28;20041;-71
2021/07/29 09:27:41;;;;;;;3.60;2.38;;;21.50;78.10;;;;;;5039404;28;20056;-70
2021/07/29 09:30:10;;;;;;;3.60;2.50;;;21.40;77.80;;;;;;5044711;28;20056;-71
2021/07/29 09:32:49;;;;;;;3.38;2.03;;;21.40;78.40;;;;;;5042140;28;20030;-71
2021/07/29 09:35:43;;;;;;;4.90;2.60;;;21.40;80.90;;;;;;5042766;28;20518;-71
2021/07/29 09:38:31;;;;;;;4.40;1.95;;;21.60;79.60;;;;;;5045050;28;20057;-71
2021/07/29 09:40:59;;;;;;;6.38;2.30;;;21.70;78.90;;;;;;5043536;28;20692;-70
2021/07/29 09:43:30;;;;;;;5.47;2.45;;;21.80;78.00;;;;;;5041851;28;20041;-72
2021/07/29 09:46:00;;;;;;;3.65;2.10;;;21.70;79.20;;;;;;5034432;28;20053;-71
2021/07/29 09:48:26;;;;;;;5.30;2.60;;;21.60;79.80;;;;;;5042520;28;20044;-72
2021/07/29 09:50:58;;;;;;;4.10;2.25;;;21.50;80.50;;;;;;5036726;28;20475;-73
2021/07/29 09:53:24;;;;;;;6.15;2.28;;;21.50;78.80;;;;;;5040323;28;20025;-72
2021/07/29 09:55:50;;;;;;;4.05;2.10;;;21.40;79.10;;;;;;5043114;28;20560;-72
2021/07/29 09:58:15;;;;;;;4.13;2.17;;;21.40;79.70;;;;;;5040300;28;20059;-72
2021/07/29 10:00:42;;;;;;;6.30;2.70;;;21.50;79.30;;;;;;5043989;28;20107;-70
2021/07/29 10:03:09;;;;;;;3.35;2.35;;;21.50;79.80;;;;;;5037368;28;20056;-71
2021/07/29 10:05:45;;;;;;;5.53;2.40;;;21.60;78.10;;;;;;5044617;28;20546;-72
2021/07/29 10:08:20;;;;;;;3.53;2.35;;;21.70;79.10;;;;;;5039643;28;20078;-72
2021/07/29 10:10:46;;;;;;;5.57;2.28;;;21.80;77.80;;;;;;5035883;28;20075;-71
2021/07/29 10:13:11;;;;;;;4.35;2.40;;;21.90;77.20;;;;;;5042787;28;20496;-72
2021/07/29 10:15:45;;;;;;;8.23;2.78;;;22.00;78.20;;;;;;5044448;28;20025;-70
2021/07/29 10:18:14;;;;;;;6.88;2.30;;;22.30;75.10;;;;;;5032561;28;20030;-70
2021/07/29 10:20:41;;;;;;;2.17;1.92;;;22.50;75.30;;;;;;5039171;28;20147;-69
2021/07/29 10:23:13;;;;;;;3.30;2.30;;;22.60;73.00;;;;;;5041105;28;20041;-70
2021/07/29 10:25:54;;;;;;;;;;;22.70;71.30;;;;;;5042245;28;20070;-71
2021/07/29 10:28:25;;;;;;;2.72;1.90;;;22.60;69.80;;;;;;5037266;28;19909;-72
2021/07/29 10:30:54;;;;;;;7.90;2.20;;;22.60;69.90;;;;;;5037895;28;20538;-72
2021/07/29 10:33:21;;;;;;;5.03;2.00;;;22.60;68.20;;;;;;5041406;28;20060;-72
2021/07/29 10:35:46;;;;;;;4.55;2.10;;;22.60;66.70;;;;;;5030764;28;20411;-72
2021/07/29 10:38:14;;;;;;;2.88;1.92;;;22.90;66.60;;;;;;5035584;28;20059;-72
2021/07/29 10:40:42;;;;;;;4.72;1.98;;;23.20;65.50;;;;;;5046625;28;20033;-72
2021/07/29 10:43:28;;;;;;;6.78;2.22;;;23.20;63.70;;;;;;5037669;28;20044;-73
2021/07/29 10:45:58;;;;;;;8.48;2.45;;;23.40;63.70;;;;;;5038493;28;20633;-72
2021/07/29 10:48:46;;;;;;;4.03;1.95;;;23.60;63.00;;;;;;5034460;28;20037;-73
2021/07/29 10:51:16;;;;;;;4.25;1.83;;;23.70;62.10;;;;;;5034492;28;20086;-72
2021/07/29 10:53:43;;;;;;;2.95;2.03;;;23.80;61.50;;;;;;5035606;28;20032;-72
2021/07/29 10:56:20;;;;;;;2.45;1.98;;;23.90;60.70;;;;;;5044114;28;20017;-71
2021/07/29 10:58:47;;;;;;;4.22;2.00;;;24.10;60.00;;;;;;5038163;28;20030;-72
2021/07/29 11:01:15;;;;;;;3.70;1.95;;;24.10;59.50;;;;;;5030143;28;20075;-72
2021/07/29 11:03:52;;;;;;;4.95;1.83;;;24.10;59.40;;;;;;5043848;28;20559;-72
2021/07/29 11:06:37;;;;;;;4.45;2.47;;;24.00;58.30;;;;;;5039339;28;20061;-73
2021/07/29 11:09:28;;;;;;;2.85;1.75;;;23.70;58.10;;;;;;5047396;28;20036;-71
2021/07/29 11:11:54;;;;;;;8.13;2.38;;;23.50;59.40;;;;;;5033894;28;20033;-73
2021/07/29 11:14:33;;;;;;;1.83;1.73;;;23.30;59.00;;;;;;5033692;28;20022;-73
2021/07/29 11:17:01;;;;;;;4.50;2.05;;;23.20;59.80;;;;;;5028094;28;20479;-73
2021/07/29 11:19:27;;;;;;;2.28;1.95;;;23.30;60.20;;;;;;5044932;28;20037;-73
2021/07/29 11:22:03;;;;;;;2.97;1.98;;;23.30;60.20;;;;;;5049254;28;20078;-72
2021/07/29 11:24:29;;;;;;;4.40;2.13;;;23.50;61.00;;;;;;5038965;28;20065;-74
2021/07/29 11:26:55;;;;;;;4.40;2.13;;;23.70;60.60;;;;;;5040393;28;20029;-73
2021/07/29 11:29:21;;;;;;;4.13;1.83;;;23.90;60.00;;;;;;5042596;28;20035;-72
2021/07/29 11:31:51;;;;;;;6.43;2.00;;;24.30;58.40;;;;;;5042201;28;20040;-73
2021/07/29 11:34:16;;;;;;;4.28;1.85;;;24.80;57.60;;;;;;5034988;28;20030;-73
2021/07/29 11:36:51;;;;;;;3.85;2.22;;;25.10;55.10;;;;;;5042597;28;20044;-73
2021/07/29 11:39:17;;;;;;;5.18;2.00;;;24.70;55.40;;;;;;5044058;28;20033;-73
2021/07/29 11:41:56;;;;;;;6.85;2.10;;;24.40;56.60;;;;;;5036610;28;20109;-72
2021/07/29 11:44:41;;;;;;;2.92;2.00;;;24.50;56.70;;;;;;5034532;28;20079;-73
2021/07/29 11:47:07;;;;;;;5.32;2.20;;;24.80;56.30;;;;;;5034764;28;20025;-73
2021/07/29 11:49:50;;;;;;;3.85;1.60;;;24.80;56.80;;;;;;5035939;28;20036;-72
2021/07/29 11:52:17;;;;;;;3.33;2.13;;;24.80;55.20;;;;;;5038306;28;20487;-73
2021/07/29 11:54:42;;;;;;;1.92;1.70;;;24.70;56.00;;;;;;5040061;28;20060;-73
2021/07/29 11:57:08;;;;;;;4.13;2.17;;;24.40;56.60;;;;;;5039857;28;20099;-74
2021/07/29 11:59:42;;;;;;;2.75;1.92;;;24.10;56.60;;;;;;5041753;28;20021;-73
2021/07/29 12:02:09;;;;;;;6.18;2.15;;;23.90;57.60;;;;;;5043903;28;20025;-72
2021/07/29 12:04:39;;;;;;;6.05;1.90;;;23.90;57.10;;;;;;5033940;28;20041;-72
2021/07/29 12:07:06;;;;;;;2.03;1.70;;;24.40;57.30;;;;;;5035854;28;20032;-73
2021/07/29 12:09:33;;;;;;;1.60;1.50;;;25.10;56.40;;;;;;5046936;28;20033;-72
2021/07/29 12:12:00;;;;;;;2.17;1.63;;;25.80;55.10;;;;;;5044796;28;20039;-72
2021/07/29 12:14:26;;;;;;;2.33;1.45;;;26.10;51.50;;;;;;5046204;28;20037;-72
2021/07/29 12:16:53;;;;;;;4.93;1.63;;;26.50;47.90;;;;;;5038433;28;20028;-72
2021/07/29 12:19:19;;;;;;;2.75;1.52;;;26.50;47.50;;;;;;5041485;28;20104;-71
2021/07/29 12:21:49;;;;;;;2.92;1.52;;;26.50;47.50;;;;;;5043769;28;20024;-72
2021/07/29 12:24:15;;;;;;;2.92;1.88;;;27.20;46.00;;;;;;5041445;28;20493;-72
2021/07/29 12:26:41;;;;;;;2.03;1.58;;;27.10;46.20;;;;;;5043515;28;20121;-72
2021/07/29 12:29:08;;;;;;;5.50;1.50;;;26.70;46.10;;;;;;5037601;28;20372;-72
2021/07/29 12:31:34;;;;;;;2.15;1.20;;;27.10;47.30;;;;;;5037379;28;20064;-72
2021/07/29 12:34:01;;;;;;;4.75;1.20;;;27.40;42.60;;;;;;5049817;28;20486;-72
2021/07/29 12:36:48;;;;;;;1.92;1.23;;;27.60;42.10;;;;;;5037994;28;20534;-73
2021/07/29 12:39:16;;;;;;;1.85;1.15;;;28.40;41.90;;;;;;5042548;28;20033;-72
2021/07/29 12:41:48;;;;;;;3.50;1.40;;;29.30;41.40;;;;;;5047560;28;20040;-72
2021/07/29 12:44:15;;;;;;;1.98;1.50;;;30.10;40.60;;;;;;5043095;28;20108;-72
2021/07/29 12:46:42;;;;;;;2.33;1.45;;;30.50;39.10;;;;;;5043006;28;20029;-73
2021/07/29 12:49:08;;;;;;;2.38;1.33;;;30.70;38.20;;;;;;5044463;28;20143;-72
2021/07/29 12:51:44;;;;;;;3.20;1.42;;;30.80;38.20;;;;;;5045413;28;20454;-72
2021/07/29 12:54:11;;;;;;;2.00;1.30;;;31.20;37.70;;;;;;5044199;28;20021;-71